Time;durP1;ratioP1;P1;durP2;ratioP2;P2;SDS_P1;SDS_P2;PMS_P1;PMS_P2;Temp;Humidity;BMP_temperature;BMP_pressure;BME280_temperature;BME280_humidity;BME280_pressure;Samples;Min_cycle;Max_cycle;Signal;HPM_P1;HPM_P2
2021/05/17 00:02:44;;;;;;;4.15;1.98;;;;;;;17.42;56.88;99504.55;1762088;81;21103;-50
2021/05/17 00:05:19;;;;;;;4.20;2.35;;;;;;;17.44;57.04;99485.38;1826176;77;22191;-48
2021/05/17 00:07:53;;;;;;;4.65;2.83;;;;;;;17.44;57.16;99480.91;1828115;77;22124;-64
2021/05/17 00:10:39;;;;;;;6.33;2.47;;;;;;;17.40;57.29;99480.72;1784039;80;21150;-66
2021/05/17 00:13:12;;;;;;;6.08;3.20;;;;;;;17.40;57.43;99480.72;1853043;77;22682;-48
2021/05/17 00:15:46;;;;;;;5.53;2.83;;;;;;;17.41;57.56;99482.44;1819340;77;22178;-64
2021/05/17 00:18:21;;;;;;;5.67;2.58;;;;;;;17.43;57.57;99474.36;1834762;77;22179;-49
2021/05/17 00:21:14;;;;;;;12.45;3.55;;;;;;;17.52;57.45;99469.38;1816598;77;22265;-65
2021/05/17 00:24:03;;;;;;;11.08;3.02;;;;;;;17.50;57.43;99456.62;1787635;80;21137;-49
2021/05/17 00:26:37;;;;;;;10.70;3.62;;;;;;;17.53;57.47;99447.15;1792811;77;22213;-64
2021/05/17 00:29:11;;;;;;;8.70;4.78;;;;;;;17.50;57.49;99445.15;1853097;77;22155;-64
2021/05/17 00:31:45;;;;;;;7.10;3.58;;;;;;;17.48;57.49;99443.89;1807457;77;22218;-64
2021/05/17 00:34:19;;;;;;;6.53;3.17;;;;;;;17.43;57.46;99431.80;1830313;77;22119;-64
2021/05/17 00:36:52;;;;;;;4.50;3.02;;;;;;;17.33;57.48;99426.98;1805715;77;22166;-64
2021/05/17 00:39:39;;;;;;;23.55;4.83;;;;;;;17.24;57.60;99414.19;1761814;81;21154;-48
2021/05/17 00:42:12;;;;;;;12.07;3.02;;;;;;;17.20;57.73;99406.87;1853154;77;22174;-64
2021/05/17 00:44:46;;;;;;;6.17;3.00;;;;;;;17.16;57.84;99397.83;1806563;77;22162;-64
2021/05/17 00:47:32;;;;;;;8.88;3.20;;;;;;;17.00;57.99;99395.17;1758771;81;21166;-49
2021/05/17 00:50:08;;;;;;;6.62;3.05;;;;;;;16.90;58.24;99384.13;1829734;77;22182;-64
2021/05/17 00:52:41;;;;;;;6.05;4.10;;;;;;;16.83;58.49;99391.58;1816128;77;27925;-64
2021/05/17 00:55:31;;;;;;;6.47;3.30;;;;;;;16.84;58.38;99393.75;1781306;80;21158;-49
2021/05/17 00:58:05;;;;;;;5.78;3.05;;;;;;;16.90;58.25;99387.66;1834781;77;22535;-48
2021/05/17 01:00:39;;;;;;;6.95;3.10;;;;;;;16.89;58.00;99384.61;1840448;77;22173;-64
2021/05/17 01:03:24;;;;;;;5.72;2.77;;;;;;;16.82;57.99;99394.30;1793027;80;21169;-65
2021/05/17 01:05:59;;;;;;;7.58;2.98;;;;;;;16.84;57.88;99417.22;1798078;77;22179;-48
2021/05/17 01:08:50;;;;;;;5.45;2.90;;;;;;;16.83;57.85;99422.59;1834787;77;22175;-48
2021/05/17 01:11:36;;;;;;;4.87;2.35;;;;;;;16.77;57.74;99431.77;1727687;82;21195;-64
2021/05/17 01:14:10;;;;;;;6.97;3.00;;;;;;;16.73;57.76;99432.87;1834588;77;22183;-64
2021/05/17 01:16:43;;;;;;;10.03;4.08;;;;;;;16.64;57.83;99436.39;1825474;77;22178;-64
2021/05/17 01:19:16;;;;;;;7.83;3.00;;;;;;;16.59;57.96;99438.42;1828450;77;22181;-64
2021/05/17 01:22:10;;;;;;;5.83;2.98;;;;;;;16.45;58.29;99434.33;1720704;83;21590;-65
2021/05/17 01:24:40;;;;;;;5.40;3.20;;;;;;;16.48;58.24;99417.75;1813180;77;22131;-48
2021/05/17 01:27:13;;;;;;;4.03;2.95;;;;;;;16.40;58.16;99409.80;1834684;77;22152;-64
2021/05/17 01:29:59;;;;;;;5.67;3.20;;;;;;;16.27;58.26;99417.06;1788962;80;21150;-66
2021/05/17 01:32:32;;;;;;;5.17;3.60;;;;;;;16.26;58.36;99411.36;1834650;77;22587;-64
2021/05/17 01:35:07;;;;;;;5.58;3.37;;;;;;;16.21;58.48;99412.06;1827322;77;22202;-48
2021/05/17 01:37:40;;;;;;;6.58;3.77;;;;;;;16.17;58.57;99404.73;1852059;77;22621;-65
2021/05/17 01:40:19;;;;;;;5.62;3.55;;;;;;;16.13;58.69;99393.89;1846042;77;22177;-48
2021/05/17 01:42:51;;;;;;;4.80;3.50;;;;;;;16.10;58.82;99395.85;1830602;77;22602;-64
2021/05/17 01:45:39;;;;;;;4.45;3.10;;;;;;;16.03;59.03;99401.92;1782333;80;21295;-49
2021/05/17 01:48:13;;;;;;;6.17;3.27;;;;;;;16.08;58.97;99394.59;1825186;77;22594;-49
2021/05/17 01:50:46;;;;;;;4.42;3.40;;;;;;;16.00;59.34;99388.35;1820557;77;22190;-65
2021/05/17 01:53:19;;;;;;;5.28;3.25;;;;;;;15.94;59.55;99382.47;1830329;77;22544;-48
2021/05/17 01:55:53;;;;;;;4.90;3.75;;;;;;;15.88;59.73;99388.96;1818372;77;22175;-65
2021/05/17 01:58:26;;;;;;;6.08;3.77;;;;;;;15.88;59.87;99395.59;1834787;77;22176;-65
2021/05/17 02:01:15;;;;;;;7.35;3.70;;;;;;;15.91;59.85;99395.44;1727608;82;21158;-66
2021/05/17 02:03:49;;;;;;;9.48;4.95;;;;;;;15.91;60.07;99384.83;1819200;77;28458;-65
2021/05/17 02:06:22;;;;;;;6.10;3.62;;;;;;;15.93;60.10;99371.02;1812275;77;22582;-65
2021/05/17 02:08:55;;;;;;;4.67;3.52;;;;;;;16.02;59.98;99365.70;1853104;77;22178;-48
2021/05/17 02:11:29;;;;;;;4.22;3.05;;;;;;;15.98;59.88;99368.12;1809523;77;22619;-49
2021/05/17 02:14:03;;;;;;;7.70;3.27;;;;;;;15.95;59.77;99372.25;1834642;77;22180;-49
2021/05/17 02:16:50;;;;;;;5.95;3.77;;;;;;;15.87;59.73;99370.88;1762156;81;21158;-50
2021/05/17 02:19:24;;;;;;;4.53;3.02;;;;;;;15.85;59.86;99356.79;1853139;77;22517;-56
2021/05/17 02:21:58;;;;;;;7.15;3.40;;;;;;;15.83;59.85;99356.00;1802906;77;22187;-65
2021/05/17 02:24:31;;;;;;;5.25;2.85;;;;;;;15.81;60.01;99361.86;1829579;77;22167;-65
2021/05/17 02:27:10;;;;;;;5.10;3.33;;;;;;;15.74;60.68;99360.45;1820641;77;22220;-49
2021/05/17 02:29:44;;;;;;;6.60;4.10;;;;;;;15.65;60.93;99354.27;1834718;77;22124;-48
2021/05/17 02:32:32;;;;;;;6.75;4.60;;;;;;;15.54;60.93;99356.13;1734254;81;21161;-50
2021/05/17 02:35:10;;;;;;;6.58;3.85;;;;;;;15.53;61.10;99355.25;1818567;77;22201;-48
2021/05/17 02:37:44;;;;;;;6.53;4.10;;;;;;;15.49;61.25;99347.05;1834770;77;22572;-49
2021/05/17 02:40:18;;;;;;;6.47;4.42;;;;;;;15.45;61.31;99336.23;1832048;77;22194;-65
2021/05/17 02:43:06;;;;;;;6.78;4.37;;;;;;;15.40;61.43;99340.42;1789335;80;21523;-49
2021/05/17 02:49:34;;;;;;;5.47;4.30;;;;;;;15.43;61.82;99331.48;1853097;77;22174;-49
2021/05/17 02:52:07;;;;;;;8.50;5.92;;;;;;;15.48;61.92;99325.94;1800092;77;28364;-48
2021/05/17 02:54:42;;;;;;;8.58;4.58;;;;;;;15.54;62.09;99320.33;1826800;77;22139;-49
2021/05/17 02:57:44;;;;;;;5.75;3.77;;;;;;;15.59;61.89;99328.92;1765201;81;21120;-67
2021/05/17 03:00:19;;;;;;;11.88;4.42;;;;;;;15.69;61.83;99322.19;1819052;77;22189;-49
2021/05/17 03:03:00;;;;;;;7.65;3.90;;;;;;;15.74;61.74;99322.82;1824760;77;22170;-49
2021/05/17 03:05:40;;;;;;;5.95;4.55;;;;;;;15.73;61.75;99325.56;1823797;77;22180;-66
2021/05/17 03:08:14;;;;;;;5.92;4.12;;;;;;;15.76;61.68;99324.09;1818990;77;22582;-66
2021/05/17 03:11:01;;;;;;;18.30;4.67;;;;;;;15.75;61.64;99328.52;1761029;80;21280;-67
2021/05/17 03:13:34;;;;;;;7.05;4.03;;;;;;;15.86;61.40;99328.45;1814638;77;22579;-49
2021/05/17 03:16:08;;;;;;;6.45;3.95;;;;;;;15.90;61.28;99332.70;1801007;77;22737;-49
2021/05/17 03:18:55;;;;;;;8.20;4.53;;;;;;;15.94;61.31;99334.71;1748577;81;21130;-49
2021/05/17 03:21:29;;;;;;;6.50;4.28;;;;;;;15.98;61.50;99329.64;1813630;77;22574;-49
2021/05/17 03:24:02;;;;;;;6.70;4.20;;;;;;;15.99;61.63;99328.70;1820498;77;22171;-66
2021/05/17 03:26:36;;;;;;;5.97;4.50;;;;;;;15.97;61.81;99327.47;1813371;77;22178;-49
2021/05/17 03:29:21;;;;;;;5.87;4.28;;;;;;;15.90;61.99;99337.52;1757586;80;21118;-68
2021/05/17 03:31:54;;;;;;;7.15;4.17;;;;;;;15.94;62.19;99342.67;1791207;77;22652;-67
2021/05/17 03:34:27;;;;;;;7.90;4.65;;;;;;;15.95;62.34;99352.34;1833021;77;22146;-50
2021/05/17 03:37:00;;;;;;;6.78;4.45;;;;;;;15.96;62.47;99354.94;1812648;77;22189;-50
2021/05/17 03:39:34;;;;;;;6.65;4.67;;;;;;;15.98;62.50;99357.50;1834800;77;22575;-49
2021/05/17 03:42:19;;;;;;;10.70;5.10;;;;;;;15.98;62.58;99357.50;1698485;84;21130;-56
2021/05/17 03:44:52;;;;;;;11.12;4.75;;;;;;;16.12;62.66;99356.79;1807074;77;22171;-49
2021/05/17 03:47:25;;;;;;;8.95;4.45;;;;;;;16.22;62.37;99355.86;1823450;77;22166;-66
2021/05/17 03:49:58;;;;;;;5.42;4.08;;;;;;;16.30;62.28;99361.16;1838451;77;22163;-66
2021/05/17 03:52:31;;;;;;;7.15;4.50;;;;;;;16.39;62.29;99370.42;1834788;77;22628;-66
2021/05/17 03:55:18;;;;;;;7.28;4.17;;;;;;;16.41;62.25;99377.00;1785250;80;21158;-67
2021/05/17 03:57:51;;;;;;;5.90;4.17;;;;;;;16.54;62.12;99375.87;1834778;77;22175;-65
2021/05/17 04:00:26;;;;;;;6.37;4.62;;;;;;;16.64;61.87;99379.28;1818760;77;22228;-65
2021/05/17 04:14:27;;;;;;;5.90;4.50;;;;;;;16.92;61.49;99389.77;1815600;77;22150;-49
2021/05/17 04:17:13;;;;;;;8.73;4.83;;;;;;;16.99;61.37;99391.63;1761850;81;21107;-49
2021/05/17 04:19:46;;;;;;;10.03;4.30;;;;;;;17.07;61.44;99389.42;1821914;77;22678;-66
2021/05/17 04:22:19;;;;;;;5.85;4.25;;;;;;;17.11;61.56;99389.25;1833181;77;22135;-47
2021/05/17 04:24:55;;;;;;;8.13;4.58;;;;;;;17.14;61.65;99395.73;1831964;77;22179;-66
2021/05/17 04:27:28;;;;;;;10.78;4.55;;;;;;;17.21;61.57;99389.98;1832890;77;22187;-48
2021/05/17 04:30:04;;;;;;;6.45;4.58;;;;;;;17.29;61.75;99396.19;1848233;77;22743;-48
2021/05/17 04:32:50;;;;;;;12.90;5.53;;;;;;;17.31;61.77;99404.09;1784473;80;21142;-49
2021/05/17 04:35:23;;;;;;;9.13;5.50;;;;;;;17.42;61.90;99406.14;1825030;77;22217;-48
2021/05/17 04:37:56;;;;;;;7.22;5.00;;;;;;;17.49;61.81;99403.04;1832354;77;22198;-65
2021/05/17 04:40:30;;;;;;;8.95;4.53;;;;;;;17.60;61.67;99405.57;1823501;77;22162;-65
2021/05/17 04:43:04;;;;;;;7.15;4.87;;;;;;;17.70;61.61;99408.09;1834791;77;22152;-49
2021/05/17 04:45:49;;;;;;;11.68;4.85;;;;;;;17.75;61.71;99409.14;1779238;80;21135;-66
2021/05/17 04:48:22;;;;;;;11.33;4.67;;;;;;;17.93;61.83;99408.55;1820670;77;22167;-49
2021/05/17 04:50:55;;;;;;;8.10;4.97;;;;;;;18.02;62.03;99408.05;1817879;77;22194;-49
2021/05/17 04:53:41;;;;;;;6.80;4.75;;;;;;;18.09;62.25;99411.23;1762076;80;21154;-49
2021/05/17 04:56:14;;;;;;;7.22;4.65;;;;;;;18.24;62.03;99413.45;1832149;77;22186;-51
2021/05/17 04:58:47;;;;;;;9.45;4.92;;;;;;;18.36;61.97;99419.34;1843835;77;22648;-50
2021/05/17 05:01:20;;;;;;;7.42;4.83;;;;;;;18.48;61.80;99423.56;1812807;77;22174;-65
2021/05/17 05:03:53;;;;;;;16.45;5.60;;;;;;;18.60;61.70;99429.48;1834785;77;22179;-65
2021/05/17 05:06:26;;;;;;;10.28;5.20;;;;;;;18.71;61.58;99430.16;1806468;77;22187;-65
2021/05/17 05:08:59;;;;;;;11.15;4.83;;;;;;;18.81;61.54;99427.31;1828769;77;22135;-50
2021/05/17 05:11:32;;;;;;;5.55;4.58;;;;;;;18.93;61.59;99429.69;1810073;77;22186;-65
2021/05/17 05:14:18;;;;;;;8.85;4.60;;;;;;;19.00;61.12;99439.05;1762181;81;21173;-59
2021/05/17 05:16:51;;;;;;;7.65;4.58;;;;;;;19.14;61.29;99443.52;1805134;77;22236;-51
2021/05/17 05:19:25;;;;;;;7.12;4.50;;;;;;;19.23;60.89;99443.39;1834740;77;22213;-65
2021/05/17 05:21:58;;;;;;;8.73;4.80;;;;;;;19.30;60.17;99448.73;1822100;77;22166;-50
2021/05/17 05:24:45;;;;;;;10.63;4.70;;;;;;;19.35;60.44;99449.78;1790997;80;21257;-51
2021/05/17 05:27:25;;;;;;;9.90;5.15;;;;;;;19.44;60.64;99453.17;1827509;77;22168;-62
2021/05/17 05:32:41;;;;;;;10.93;4.67;;;;;;;19.57;60.42;99446.59;1834830;77;22631;-50
2021/05/17 05:35:25;;;;;;;9.05;4.72;;;;;;;19.61;60.32;99452.11;1783379;80;21586;-52
2021/05/17 05:37:58;;;;;;;10.40;4.95;;;;;;;19.71;60.07;99447.02;1834888;77;22163;-65
2021/05/17 05:40:32;;;;;;;8.68;5.15;;;;;;;19.80;60.14;99453.56;1842007;77;22174;-65
2021/05/17 05:43:18;;;;;;;9.30;4.65;;;;;;;19.89;59.89;99459.67;1793310;80;21558;-52
2021/05/17 05:45:51;;;;;;;11.88;4.58;;;;;;;19.99;59.87;99453.73;1829979;77;22173;-50
2021/05/17 05:48:24;;;;;;;8.48;5.10;;;;;;;20.04;60.01;99454.28;1834747;77;22156;-50
2021/05/17 05:50:57;;;;;;;9.80;4.50;;;;;;;20.12;60.11;99453.76;1817980;77;22178;-64
2021/05/17 05:53:30;;;;;;;12.93;5.42;;;;;;;20.25;59.87;99457.33;1849410;77;22175;-64
2021/05/17 05:56:17;;;;;;;9.78;4.53;;;;;;;20.28;59.67;99458.46;1773367;78;21574;-51
2021/05/17 05:58:50;;;;;;;8.58;4.53;;;;;;;20.40;59.57;99458.56;1834775;77;22183;-50
2021/05/17 06:01:23;;;;;;;8.30;4.78;;;;;;;20.45;59.40;99457.77;1812132;77;22218;-51
2021/05/17 06:03:56;;;;;;;8.55;5.00;;;;;;;20.49;59.10;99457.94;1828487;77;22115;-65
2021/05/17 06:06:30;;;;;;;7.40;4.33;;;;;;;20.44;59.52;99462.28;1809899;77;22170;-64
2021/05/17 06:09:15;;;;;;;9.08;4.80;;;;;;;20.44;59.55;99464.08;1762088;81;21150;-51
2021/05/17 06:11:49;;;;;;;5.67;4.42;;;;;;;20.60;58.95;99455.86;1805921;77;22174;-50
2021/05/17 06:14:24;;;;;;;7.22;4.87;;;;;;;20.60;59.23;99462.54;1819267;77;22182;-50
2021/05/17 06:17:11;;;;;;;9.00;4.47;;;;;;;20.65;59.31;99460.41;1732050;83;21563;-65
2021/05/17 06:19:45;;;;;;;6.12;3.85;;;;;;;20.80;58.95;99455.84;1834351;77;22179;-65
2021/05/17 06:22:18;;;;;;;6.00;4.20;;;;;;;20.89;58.58;99445.00;1809232;77;22551;-64
2021/05/17 06:24:57;;;;;;;8.28;4.25;;;;;;;20.94;58.03;99449.55;1816008;77;22158;-65
2021/05/17 06:27:44;;;;;;;8.10;4.45;;;;;;;20.96;57.95;99447.63;1758652;81;21182;-51
2021/05/17 06:30:20;;;;;;;5.33;3.95;;;;;;;21.15;58.13;99448.97;1823724;77;22194;-65
2021/05/17 06:32:54;;;;;;;6.33;4.10;;;;;;;21.31;57.96;99439.36;1831091;77;22143;-65
2021/05/17 06:38:17;;;;;;;7.22;4.30;;;;;;;21.60;56.87;99435.89;1834804;77;22144;-65
2021/05/17 06:40:52;;;;;;;7.35;3.83;;;;;;;21.78;56.18;99435.05;1821002;77;22621;-65
2021/05/17 06:43:26;;;;;;;7.35;4.37;;;;;;;21.88;55.89;99427.17;1846279;77;22551;-65
2021/05/17 06:46:01;;;;;;;3.95;3.08;;;;;;;22.01;55.43;99422.23;1817496;77;22190;-51
2021/05/17 06:48:42;;;;;;;16.65;4.22;;;;;;;22.15;55.22;99427.42;1820930;77;22605;-65
2021/05/17 06:51:16;;;;;;;5.33;2.87;;;;;;;22.36;54.77;99419.56;1830397;77;22189;-51
2021/05/17 06:53:53;;;;;;;6.17;2.52;;;;;;;22.54;52.87;99427.16;1834778;77;22575;-65
2021/05/17 06:56:36;;;;;;;7.87;2.37;;;;;;;22.67;52.99;99427.92;1829656;77;22181;-65
2021/05/17 06:59:02;;;;;;;4.78;2.98;;;;;;;22.84;52.24;99429.78;1820353;77;22171;-51
2021/05/17 07:01:49;;;;;;;4.87;2.60;;;;;;;22.95;52.08;99428.92;1766720;80;21121;-52
2021/05/17 07:04:22;;;;;;;3.55;2.50;;;;;;;23.16;51.72;99423.19;1853135;77;22175;-51
2021/05/17 07:06:57;;;;;;;4.37;2.27;;;;;;;23.31;51.59;99419.78;1819294;77;22174;-64
2021/05/17 07:12:42;;;;;;;5.87;2.10;;;;;;;23.97;49.77;99415.80;1836484;77;22235;-65
2021/05/17 07:15:15;;;;;;;3.95;1.90;;;;;;;24.13;47.95;99410.88;1827179;77;22151;-50
2021/05/17 07:17:51;;;;;;;7.00;2.08;;;;;;;24.37;48.19;99407.56;1834751;77;22179;-51
2021/05/17 07:20:32;;;;;;;6.22;1.90;;;;;;;24.58;47.02;99395.45;1842131;77;22201;-51
2021/05/17 07:26:10;;;;;;;3.75;1.98;;;;;;;24.75;45.19;99391.31;1799719;77;22626;-65
2021/05/17 07:28:46;;;;;;;3.20;1.85;;;;;;;24.80;44.51;99385.88;1850565;77;22128;-52
2021/05/17 07:31:19;;;;;;;3.33;1.70;;;;;;;24.80;44.05;99393.94;1831085;77;22625;-52
2021/05/17 07:34:05;;;;;;;4.83;1.72;;;;;;;24.79;44.45;99393.58;1790022;80;21272;-52
2021/05/17 07:36:38;;;;;;;4.97;1.50;;;;;;;24.86;44.29;99390.36;1808795;77;22170;-66
2021/05/17 07:39:11;;;;;;;5.28;1.70;;;;;;;24.85;44.16;99394.91;1849483;77;22183;-65
2021/05/17 07:41:44;;;;;;;3.87;1.87;;;;;;;24.96;43.96;99395.29;1807363;77;22174;-52
2021/05/17 07:44:17;;;;;;;5.65;2.25;;;;;;;25.07;43.97;99388.94;1853119;77;22190;-51
2021/05/17 07:46:50;;;;;;;4.47;1.90;;;;;;;25.19;44.49;99395.06;1823762;77;22169;-65
2021/05/17 07:49:42;;;;;;;2.83;1.77;;;;;;;25.23;44.03;99392.45;1764809;80;21558;-52
2021/05/17 07:52:15;;;;;;;4.03;1.98;;;;;;;25.31;44.00;99387.75;1816649;77;22551;-52
2021/05/17 07:54:49;;;;;;;7.95;2.17;;;;;;;25.32;44.49;99384.07;1833599;77;22179;-52
2021/05/17 07:57:23;;;;;;;6.08;2.15;;;;;;;25.37;44.75;99376.43;1853009;77;22179;-65
2021/05/17 07:59:56;;;;;;;5.45;1.87;;;;;;;25.44;44.19;99374.89;1822074;77;22140;-52
2021/05/17 08:02:42;;;;;;;5.40;1.80;;;;;;;25.46;43.36;99380.15;1793312;80;21162;-52
2021/05/17 08:05:15;;;;;;;4.72;2.00;;;;;;;25.58;43.03;99375.48;1845850;77;22625;-65
2021/05/17 08:07:48;;;;;;;21.48;3.75;;;;;;;25.62;42.46;99364.27;1852192;77;22543;-66
2021/05/17 08:10:21;;;;;;;4.25;1.98;;;;;;;25.66;42.67;99370.24;1820998;77;22669;-66
2021/05/17 08:13:06;;;;;;;7.17;1.90;;;;;;;25.69;42.69;99368.11;1765160;81;21126;-66
2021/05/17 08:15:39;;;;;;;5.70;1.72;;;;;;;25.73;42.09;99361.09;1840171;77;22185;-65
2021/05/17 08:18:18;;;;;;;3.62;1.77;;;;;;;25.76;42.79;99360.80;1815468;77;22136;-66
2021/05/17 08:21:05;;;;;;;5.25;1.95;;;;;;;25.74;42.54;99365.00;1778581;80;21346;-64
2021/05/17 08:23:38;;;;;;;4.90;2.10;;;;;;;25.80;42.04;99354.14;1834777;77;22611;-52
2021/05/17 08:26:11;;;;;;;3.17;1.72;;;;;;;25.97;42.06;99353.91;1824755;77;22579;-66
2021/05/17 08:28:44;;;;;;;2.87;1.80;;;;;;;26.11;41.32;99352.61;1830137;77;22158;-66
2021/05/17 08:31:19;;;;;;;3.10;1.60;;;;;;;26.28;40.86;99352.39;1813582;77;22166;-65
2021/05/17 08:34:05;;;;;;;5.33;2.10;;;;;;;26.29;40.56;99350.05;1762218;81;21166;-66
2021/05/17 08:36:39;;;;;;;3.17;1.60;;;;;;;26.43;40.48;99358.20;1823507;77;22186;-52
2021/05/17 08:39:12;;;;;;;5.35;2.40;;;;;;;26.42;40.41;99361.37;1834777;77;22168;-52
2021/05/17 08:41:45;;;;;;;5.00;1.90;;;;;;;26.47;40.65;99363.66;1807178;77;22190;-66
2021/05/17 08:44:18;;;;;;;4.30;2.00;;;;;;;26.45;40.52;99358.91;1829789;77;22194;-52
2021/05/17 08:46:52;;;;;;;1.92;1.10;;;;;;;26.49;40.27;99363.02;1784392;77;22225;-52
2021/05/17 08:49:38;;;;;;;3.65;1.42;;;;;;;26.55;39.39;99365.61;1731617;83;21183;-53
2021/05/17 08:52:32;;;;;;;4.42;1.70;;;;;;;26.56;38.90;99364.09;1834330;77;22210;-65
2021/05/17 08:55:11;;;;;;;2.40;1.47;;;;;;;26.67;39.29;99371.67;1821332;77;22179;-52
2021/05/17 08:57:46;;;;;;;3.02;1.57;;;;;;;26.84;39.44;99369.58;1834775;77;22116;-52
2021/05/17 09:00:20;;;;;;;4.60;1.98;;;;;;;27.13;39.29;99365.88;1826632;77;22682;-66
2021/05/17 09:03:06;;;;;;;2.95;1.85;;;;;;;27.33;39.02;99373.00;1762128;81;21308;-66
2021/05/17 09:05:41;;;;;;;4.40;2.35;;;;;;;27.64;38.23;99372.18;1820268;77;22174;-65
2021/05/17 09:08:15;;;;;;;3.95;2.17;;;;;;;27.86;38.77;99366.80;1853118;77;22155;-52
2021/05/17 09:11:01;;;;;;;5.67;2.25;;;;;;;28.12;38.24;99377.35;1758323;81;21126;-66
2021/05/17 09:13:34;;;;;;;6.12;2.58;;;;;;;28.42;38.03;99367.93;1821722;77;22167;-65
2021/05/17 09:16:07;;;;;;;6.58;2.85;;;;;;;28.79;37.09;99366.80;1815771;77;22190;-52
2021/05/17 09:18:40;;;;;;;3.80;2.45;;;;;;;28.97;36.56;99362.30;1834763;77;22179;-52
2021/05/17 09:21:13;;;;;;;4.55;2.47;;;;;;;28.94;36.75;99361.62;1832313;77;22189;-65
2021/05/17 09:23:46;;;;;;;5.42;2.70;;;;;;;29.03;37.07;99361.13;1821875;77;22615;-64
2021/05/17 09:26:26;;;;;;;5.42;2.30;;;;;;;29.13;37.08;99362.86;1813065;77;22681;-52
2021/05/17 09:29:06;;;;;;;6.67;2.40;;;;;;;29.11;36.53;99361.69;1761834;80;21159;-52
2021/05/17 09:31:43;;;;;;;7.40;2.62;;;;;;;29.08;36.36;99357.95;1792882;77;22189;-65
2021/05/17 09:34:14;;;;;;;5.30;2.65;;;;;;;29.03;36.13;99367.07;1826690;77;22136;-64
2021/05/17 09:37:08;;;;;;;8.05;2.70;;;;;;;29.00;36.10;99369.58;1766685;80;21625;-53
2021/05/17 09:39:51;;;;;;;5.62;2.17;;;;;;;29.02;35.58;99364.86;1832562;77;22125;-52
2021/05/17 09:42:25;;;;;;;3.80;2.05;;;;;;;29.07;35.98;99358.44;1826457;77;22116;-65
2021/05/17 09:44:58;;;;;;;5.83;2.30;;;;;;;29.35;35.81;99362.76;1849650;77;22579;-52
2021/05/17 09:47:44;;;;;;;5.62;2.42;;;;;;;29.51;35.24;99356.55;1793406;80;21558;-52
2021/05/17 09:50:17;;;;;;;5.50;2.05;;;;;;;29.74;34.36;99351.32;1811339;77;22198;-65
2021/05/17 09:52:50;;;;;;;3.47;1.72;;;;;;;29.97;34.13;99354.23;1827524;77;22115;-65
2021/05/17 09:55:37;;;;;;;3.90;1.70;;;;;;;30.17;34.23;99351.67;1785029;80;21186;-52
2021/05/17 09:58:10;;;;;;;4.35;2.02;;;;;;;30.67;33.27;99345.14;1834568;77;22188;-65
2021/05/17 10:00:43;;;;;;;4.92;1.57;;;;;;;30.90;32.54;99340.81;1820675;77;22226;-53
2021/05/17 10:03:22;;;;;;;4.08;1.85;;;;;;;31.10;31.09;99335.30;1834056;77;22189;-53
2021/05/17 10:06:06;;;;;;;4.92;1.60;;;;;;;31.25;31.66;99331.82;1815680;77;22221;-65
2021/05/17 10:08:54;;;;;;;7.25;2.10;;;;;;;31.35;30.81;99338.41;1746226;81;21150;-53
2021/05/17 10:11:28;;;;;;;4.25;1.75;;;;;;;31.27;30.41;99327.05;1805594;77;22167;-52
2021/05/17 10:14:01;;;;;;;4.25;1.25;;;;;;;31.28;29.52;99330.11;1834780;77;22603;-65
2021/05/17 10:16:35;;;;;;;3.27;1.60;;;;;;;31.19;29.88;99340.69;1809516;77;22665;-53
2021/05/17 10:19:21;;;;;;;5.10;1.70;;;;;;;30.92;29.70;99340.95;1761774;80;21115;-65
2021/05/17 10:21:54;;;;;;;4.90;1.10;;;;;;;30.91;29.90;99342.50;1805244;77;22166;-66
2021/05/17 10:24:27;;;;;;;6.47;1.42;;;;;;;30.78;30.84;99344.44;1834657;77;22713;-66
2021/05/17 10:27:01;;;;;;;5.25;1.30;;;;;;;30.52;30.50;99350.92;1821423;77;22178;-52
2021/05/17 10:29:37;;;;;;;3.75;1.42;;;;;;;30.12;30.39;99352.20;1830825;77;22183;-65
2021/05/17 10:32:10;;;;;;;6.30;1.57;;;;;;;29.48;31.88;99346.04;1834811;77;22654;-66
2021/05/17 10:35:09;;;;;;;6.33;1.50;;;;;;;29.43;32.19;99351.97;1789738;80;21450;-66
2021/05/17 10:37:45;;;;;;;19.65;3.72;;;;;;;29.29;32.50;99349.87;1853122;77;22140;-65
2021/05/17 10:40:39;;;;;;;5.62;1.70;;;;;;;28.90;33.36;99361.59;1811431;77;28054;-65
2021/05/17 10:46:53;;;;;;;6.00;1.87;;;;;;;28.19;37.40;99362.20;1808942;77;22648;-65
2021/05/17 10:49:37;;;;;;;4.35;1.90;;;;;;;28.27;37.86;99362.75;1834790;77;22583;-66
2021/05/17 10:52:18;;;;;;;4.17;1.67;;;;;;;28.32;37.65;99372.59;1834814;77;22120;-66
2021/05/17 10:55:10;;;;;;;5.55;1.87;;;;;;;28.09;37.43;99366.81;1732769;81;21145;-54
2021/05/17 11:00:37;;;;;;;31.82;3.33;;;;;;;27.49;38.47;99364.25;1823256;77;22194;-52
2021/05/17 11:03:20;;;;;;;5.47;2.08;;;;;;;27.24;39.44;99372.91;1819180;77;28436;-65
2021/05/17 11:05:53;;;;;;;4.83;1.72;;;;;;;27.12;39.91;99364.17;1818557;77;22182;-52
2021/05/17 11:08:48;;;;;;;3.42;2.08;;;;;;;27.05;40.27;99371.17;1762148;80;21139;-66
2021/05/17 11:11:22;;;;;;;5.67;2.00;;;;;;;26.86;40.60;99362.19;1830596;77;22166;-65
2021/05/17 11:14:19;;;;;;;8.10;2.00;;;;;;;26.70;41.28;99369.54;1814860;77;22609;-65
2021/05/17 11:17:02;;;;;;;10.58;2.37;;;;;;;26.56;42.08;99370.84;1820925;77;22481;-68
2021/05/17 11:19:48;;;;;;;5.35;2.02;;;;;;;26.51;41.79;99366.38;1792990;80;21154;-54
2021/05/17 11:22:42;;;;;;;5.62;1.90;;;;;;;26.51;41.61;99367.73;1834807;77;22175;-52
2021/05/17 11:25:17;;;;;;;3.58;2.10;;;;;;;26.36;41.25;99364.66;1790603;77;22627;-66
2021/05/17 11:28:03;;;;;;;5.22;1.95;;;;;;;26.24;41.45;99363.14;1760182;81;21149;-52
2021/05/17 11:30:39;;;;;;;4.28;2.02;;;;;;;26.20;42.09;99364.42;1822941;77;22186;-51
2021/05/17 11:34:05;;;;;;;6.42;1.42;;;;;;;26.07;42.73;99366.89;1822420;77;22192;-52
2021/05/17 11:36:56;;;;;;;5.30;2.05;;;;;;;25.89;44.29;99369.46;1795098;77;22645;-65
2021/05/17 11:39:42;;;;;;;2.87;1.80;;;;;;;25.75;44.38;99365.36;1834895;77;22168;-51
2021/05/17 11:42:28;;;;;;;6.05;2.20;;;;;;;25.59;44.71;99382.57;1699618;84;21189;-65
2021/05/17 11:45:12;;;;;;;5.83;2.60;;;;;;;25.47;44.75;99377.30;1829934;77;22116;-65
2021/05/17 11:47:40;;;;;;;3.80;2.33;;;;;;;25.43;44.78;99375.01;1834765;77;22592;-51
2021/05/17 11:50:27;;;;;;;4.37;1.70;;;;;;;25.30;44.46;99380.15;1728526;82;21164;-66
2021/05/17 11:53:00;;;;;;;3.27;1.80;;;;;;;25.33;44.56;99369.62;1852557;77;22170;-51
2021/05/17 11:55:47;;;;;;;3.95;2.12;;;;;;;25.33;44.25;99375.00;1815609;77;22645;-65
2021/05/17 11:58:25;;;;;;;3.27;1.98;;;;;;;25.38;44.63;99374.92;1814512;77;22133;-64
2021/05/17 12:01:19;;;;;;;;;;;;;;;25.39;44.70;99382.02;1742690;81;21142;-53
2021/05/17 12:03:52;;;;;;;4.12;2.00;;;;;;;25.47;43.62;99376.47;1827659;77;22131;-51
2021/05/17 12:06:25;;;;;;;4.60;1.75;;;;;;;25.47;43.50;99377.30;1829561;77;22174;-65
2021/05/17 12:09:11;;;;;;;3.40;1.80;;;;;;;25.52;43.40;99375.05;1767145;80;21122;-65
2021/05/17 12:11:48;;;;;;;3.60;1.90;;;;;;;25.58;43.20;99368.27;1807539;77;22214;-51
2021/05/17 12:14:22;;;;;;;3.42;2.05;;;;;;;25.66;42.86;99367.55;1820280;77;22168;-51
2021/05/17 12:17:21;;;;;;;6.40;2.22;;;;;;;25.70;42.38;99366.28;1782673;80;21126;-51
2021/05/17 12:19:59;;;;;;;2.72;1.70;;;;;;;25.80;42.57;99359.05;1815615;77;22162;-51
2021/05/17 12:22:36;;;;;;;2.83;1.70;;;;;;;25.78;42.51;99358.34;1807697;77;22575;-51
2021/05/17 12:25:23;;;;;;;7.35;2.02;;;;;;;25.68;42.63;99361.02;1722957;83;21116;-65
2021/05/17 12:27:56;;;;;;;3.42;2.12;;;;;;;25.68;42.89;99354.28;1823161;77;22185;-51
2021/05/17 12:30:30;;;;;;;3.02;1.72;;;;;;;25.65;42.52;99349.17;1809792;77;22202;-64
2021/05/17 12:33:04;;;;;;;3.77;1.70;;;;;;;25.63;42.34;99352.50;1834765;77;22184;-64
2021/05/17 12:35:52;;;;;;;5.75;1.60;;;;;;;25.60;41.99;99355.50;1778743;80;21139;-64
2021/05/17 12:38:25;;;;;;;4.03;1.77;;;;;;;25.41;43.31;99355.44;1834843;77;22552;-51
2021/05/17 12:40:58;;;;;;;6.12;1.82;;;;;;;25.63;43.14;99351.16;1834775;77;22695;-50
2021/05/17 12:43:35;;;;;;;5.97;2.10;;;;;;;25.64;42.38;99350.16;1834745;77;22179;-64
2021/05/17 12:46:10;;;;;;;2.37;1.45;;;;;;;25.63;42.53;99343.58;1816073;77;22178;-51
2021/05/17 12:48:54;;;;;;;5.35;1.77;;;;;;;25.64;42.76;99343.42;1762045;81;21622;-52
2021/05/17 12:51:29;;;;;;;24.00;3.67;;;;;;;25.77;42.33;99342.30;1810300;77;22186;-51
2021/05/17 12:56:49;;;;;;;8.00;1.87;;;;;;;25.91;41.33;99342.35;1806449;77;22591;-65
2021/05/17 12:59:45;;;;;;;4.97;2.08;;;;;;;25.91;41.57;99346.39;1761711;81;21127;-65